createdAt,value
2022-12-18T00:02:04.574Z,24.00
2022-12-18T00:04:33.151Z,24.70
2022-12-18T00:07:01.304Z,24.42
2022-12-18T00:09:31.179Z,23.58
2022-12-18T00:14:43.858Z,25.00
2022-12-18T00:17:11.945Z,22.73
2022-12-18T00:19:39.940Z,22.38
2022-12-18T00:22:08.176Z,22.45
2022-12-18T00:24:36.614Z,23.42
2022-12-18T00:27:04.947Z,22.92
2022-12-18T00:29:34.515Z,22.83
2022-12-18T00:32:02.830Z,21.33
2022-12-18T00:34:31.024Z,22.75
2022-12-18T00:36:59.043Z,21.90
2022-12-18T00:39:27.268Z,20.73
2022-12-18T00:42:12.530Z,21.38
2022-12-18T00:44:42.726Z,23.65
2022-12-18T00:47:10.739Z,22.65
2022-12-18T00:49:38.727Z,22.13
2022-12-18T00:52:06.967Z,22.83
2022-12-18T00:54:35.014Z,22.23
2022-12-18T00:57:03.700Z,22.45
2022-12-18T00:59:32.131Z,21.42
2022-12-18T01:02:01.677Z,20.52
2022-12-18T01:04:29.847Z,21.23
2022-12-18T01:07:00.519Z,21.00
2022-12-18T01:09:28.903Z,20.92
2022-12-18T01:11:59.964Z,21.50
2022-12-18T01:14:28.043Z,21.23
2022-12-18T01:16:56.121Z,20.38
2022-12-18T01:19:25.617Z,21.25
2022-12-18T01:21:53.690Z,19.50
2022-12-18T01:24:21.973Z,18.77
2022-12-18T01:26:49.998Z,20.88
2022-12-18T01:29:18.025Z,19.02
2022-12-18T01:31:46.237Z,21.05
2022-12-18T01:34:14.335Z,20.33
2022-12-18T01:36:43.777Z,20.63
2022-12-18T01:39:14.486Z,21.10
2022-12-18T01:42:00.801Z,20.10
2022-12-18T01:45:02.038Z,21.10
2022-12-18T01:47:35.561Z,21.52
2022-12-18T01:50:06.650Z,20.38
2022-12-18T01:52:37.989Z,18.80
2022-12-18T01:55:08.919Z,18.60
2022-12-18T01:57:37.502Z,20.02
2022-12-18T02:00:10.003Z,19.45
2022-12-18T02:02:38.242Z,19.25
2022-12-18T02:05:08.082Z,20.33
2022-12-18T02:07:47.096Z,22.02
2022-12-18T02:10:21.965Z,19.95
2022-12-18T02:12:57.343Z,18.73
2022-12-18T02:15:34.297Z,19.73
2022-12-18T02:18:07.931Z,19.98
2022-12-18T02:20:42.100Z,20.00
2022-12-18T02:23:26.530Z,19.20
2022-12-18T02:26:09.733Z,18.05
2022-12-18T02:28:44.293Z,19.15
2022-12-18T02:31:16.438Z,18.95
2022-12-18T02:36:16.867Z,18.50
2022-12-18T02:38:46.770Z,18.25
2022-12-18T02:41:18.753Z,20.38
2022-12-18T02:43:52.675Z,17.65
2022-12-18T02:46:39.853Z,17.90
2022-12-18T02:49:18.900Z,17.52
2022-12-18T02:51:54.931Z,18.45
2022-12-18T02:54:44.764Z,17.13
2022-12-18T02:57:19.353Z,16.60
2022-12-18T02:59:55.503Z,18.58
2022-12-18T03:02:29.173Z,17.67
2022-12-18T03:05:03.200Z,18.20
2022-12-18T03:07:39.200Z,18.40
2022-12-18T03:10:14.046Z,16.48
2022-12-18T03:12:48.867Z,14.95
2022-12-18T03:15:22.818Z,16.10
2022-12-18T03:17:57.323Z,15.98
2022-12-18T03:20:31.393Z,16.10
2022-12-18T03:23:06.303Z,16.00
2022-12-18T03:25:36.908Z,16.38
2022-12-18T03:28:10.507Z,16.80
2022-12-18T03:30:42.631Z,17.67
2022-12-18T03:35:43.910Z,16.02
2022-12-18T03:38:12.869Z,15.80
2022-12-18T03:40:52.852Z,15.13
2022-12-18T03:43:33.586Z,13.98
2022-12-18T03:46:09.329Z,15.88
2022-12-18T03:48:43.957Z,15.48
2022-12-18T03:51:17.358Z,16.13
2022-12-18T03:53:53.766Z,16.33
2022-12-18T03:56:24.807Z,15.07
2022-12-18T03:58:55.876Z,16.20
2022-12-18T04:01:31.528Z,15.02
2022-12-18T04:04:02.746Z,14.63
2022-12-18T04:06:31.961Z,15.43
2022-12-18T04:09:01.163Z,14.57
2022-12-18T04:11:29.359Z,15.15
2022-12-18T04:13:59.617Z,14.55
2022-12-18T04:16:28.628Z,15.75
2022-12-18T04:18:56.898Z,13.93
2022-12-18T04:21:24.987Z,14.85
2022-12-18T04:23:53.186Z,12.88
2022-12-18T04:26:21.402Z,14.68
2022-12-18T04:28:49.500Z,14.40
2022-12-18T04:31:19.002Z,14.27
2022-12-18T04:33:47.138Z,14.60
2022-12-18T04:36:15.377Z,13.95
2022-12-18T04:38:43.351Z,13.77
2022-12-18T04:41:13.623Z,13.55
2022-12-18T04:43:41.926Z,13.73
2022-12-18T04:46:10.983Z,13.65
2022-12-18T04:48:40.630Z,13.70
2022-12-18T04:51:09.256Z,12.55
2022-12-18T04:53:37.709Z,13.55
2022-12-18T04:56:08.364Z,13.30
2022-12-18T04:58:36.691Z,13.60
2022-12-18T05:01:05.369Z,11.85
2022-12-18T05:03:33.906Z,12.38
2022-12-18T05:06:03.923Z,12.25
2022-12-18T05:08:32.397Z,12.15
2022-12-18T05:11:01.991Z,12.57
2022-12-18T05:13:30.306Z,12.20
2022-12-18T05:15:58.649Z,12.95
2022-12-18T05:18:29.934Z,11.45
2022-12-18T05:20:58.265Z,12.00
2022-12-18T05:23:28.756Z,12.38
2022-12-18T05:25:59.422Z,11.00
2022-12-18T05:28:30.436Z,11.30
2022-12-18T05:31:00.102Z,11.75
2022-12-18T05:33:30.776Z,10.85
2022-12-18T05:36:00.284Z,11.68
2022-12-18T05:38:31.521Z,11.13
2022-12-18T05:41:00.278Z,11.87
2022-12-18T05:43:29.938Z,12.30
2022-12-18T05:45:58.607Z,11.43
2022-12-18T05:48:26.753Z,11.60
2022-12-18T05:50:54.912Z,11.90
2022-12-18T05:53:23.263Z,11.48
2022-12-18T05:55:52.766Z,10.98
2022-12-18T05:58:20.874Z,11.00
2022-12-18T06:00:49.227Z,11.02
2022-12-18T06:03:17.328Z,10.48
2022-12-18T06:05:47.176Z,10.38
2022-12-18T06:08:15.754Z,10.55
2022-12-18T06:10:44.282Z,12.38
2022-12-18T06:13:13.733Z,10.55
2022-12-18T06:15:41.776Z,11.20
2022-12-18T06:18:12.786Z,10.82
2022-12-18T06:20:42.437Z,10.70
2022-12-18T06:23:10.803Z,11.15
2022-12-18T06:25:40.510Z,9.77
2022-12-18T06:28:08.633Z,10.25
2022-12-18T06:30:38.066Z,11.02
2022-12-18T06:33:06.204Z,10.82
2022-12-18T06:35:34.583Z,9.68
2022-12-18T06:38:03.595Z,10.85
2022-12-18T06:40:31.925Z,11.05
2022-12-18T06:43:00.010Z,10.23
2022-12-18T06:45:28.601Z,11.40
2022-12-18T06:48:00.268Z,10.52
2022-12-18T06:50:28.769Z,11.15
2022-12-18T06:52:56.932Z,12.00
2022-12-18T06:55:24.987Z,11.00
2022-12-18T06:57:53.466Z,10.90
2022-12-18T07:00:21.586Z,10.43
2022-12-18T07:02:52.588Z,11.40
2022-12-18T07:05:22.059Z,11.32
2022-12-18T07:07:50.239Z,11.52
2022-12-18T07:10:18.512Z,10.98
2022-12-18T07:12:49.276Z,11.48
2022-12-18T07:15:17.714Z,11.27
2022-12-18T07:17:45.770Z,10.85
2022-12-18T07:20:13.820Z,10.05
2022-12-18T07:22:45.512Z,11.77
2022-12-18T07:25:13.603Z,10.55
2022-12-18T07:27:41.670Z,11.45
2022-12-18T07:30:11.938Z,11.10
2022-12-18T07:32:40.010Z,11.27
2022-12-18T07:35:08.717Z,11.20
2022-12-18T07:37:36.749Z,11.88
2022-12-18T07:40:07.299Z,10.73
2022-12-18T07:42:35.927Z,11.32
2022-12-18T07:45:05.145Z,10.75
2022-12-18T07:47:33.215Z,11.57
2022-12-18T07:50:01.305Z,9.45
2022-12-18T07:52:29.379Z,11.68
2022-12-18T07:54:57.690Z,11.77
2022-12-18T07:57:49.579Z,10.95
2022-12-18T08:00:17.330Z,12.27
2022-12-18T08:02:46.091Z,10.60
2022-12-18T08:05:14.446Z,11.80
2022-12-18T08:07:42.536Z,11.10
2022-12-18T08:10:11.187Z,11.85
2022-12-18T08:12:40.741Z,10.25
2022-12-18T08:15:09.922Z,11.13
2022-12-18T08:17:37.994Z,11.73
2022-12-18T08:20:06.470Z,10.68
2022-12-18T08:22:36.393Z,11.13
2022-12-18T08:25:04.849Z,10.75
2022-12-18T08:27:33.459Z,10.45
2022-12-18T08:30:04.334Z,10.77
2022-12-18T08:32:34.208Z,10.30
2022-12-18T08:35:02.288Z,10.85
2022-12-18T08:37:30.400Z,10.13
2022-12-18T08:39:58.460Z,9.82
2022-12-18T08:42:44.239Z,10.25
2022-12-18T08:45:13.908Z,9.35
2022-12-18T08:47:41.965Z,9.00
2022-12-18T08:50:12.990Z,8.63
2022-12-18T08:52:41.123Z,8.68
2022-12-18T08:55:10.784Z,8.63
2022-12-18T08:57:39.017Z,8.43
2022-12-18T09:00:08.639Z,8.65
2022-12-18T09:02:38.133Z,8.50
2022-12-18T09:05:07.186Z,8.20
2022-12-18T09:07:35.396Z,8.02
2022-12-18T09:10:03.492Z,8.05
2022-12-18T09:12:31.539Z,9.00
2022-12-18T09:14:59.730Z,8.52
2022-12-18T09:17:28.033Z,8.98
2022-12-18T09:20:00.137Z,8.73
2022-12-18T09:22:28.368Z,8.30
2022-12-18T09:24:56.540Z,8.27
2022-12-18T09:27:24.682Z,7.68
2022-12-18T09:29:52.754Z,8.52
2022-12-18T09:32:22.584Z,7.82
2022-12-18T09:34:50.823Z,8.18
2022-12-18T09:37:20.281Z,8.07
2022-12-18T09:39:48.478Z,8.38
2022-12-18T09:42:22.552Z,8.38
2022-12-18T09:44:52.953Z,8.25
2022-12-18T09:47:26.454Z,8.15
2022-12-18T09:49:58.884Z,8.07
2022-12-18T09:52:32.696Z,8.30
2022-12-18T09:55:05.611Z,7.57
2022-12-18T09:57:35.721Z,8.95
2022-12-18T10:00:16.575Z,8.50
2022-12-18T10:02:44.839Z,8.20
2022-12-18T10:05:16.363Z,10.50
2022-12-18T10:07:58.659Z,9.73
2022-12-18T10:10:38.825Z,8.50
2022-12-18T10:13:23.659Z,8.73
2022-12-18T10:16:02.445Z,8.25
2022-12-18T10:18:49.731Z,8.95
2022-12-18T10:21:21.199Z,10.23
2022-12-18T10:24:02.546Z,8.97
2022-12-18T10:26:30.681Z,9.60
2022-12-18T10:29:05.318Z,9.20
2022-12-18T10:31:33.845Z,8.75
2022-12-18T10:34:02.012Z,8.90
2022-12-18T10:36:30.797Z,8.55
2022-12-18T10:39:17.099Z,9.60
2022-12-18T10:41:47.674Z,8.60
2022-12-18T10:44:20.147Z,8.30
2022-12-18T10:46:50.155Z,8.52
2022-12-18T10:49:24.357Z,10.57
2022-12-18T10:51:53.754Z,9.68
2022-12-18T10:54:25.960Z,9.52
2022-12-18T10:56:54.063Z,6.90
2022-12-18T10:59:22.171Z,8.43
2022-12-18T11:01:53.120Z,7.85
2022-12-18T11:04:23.981Z,8.10
2022-12-18T11:06:58.392Z,7.90
2022-12-18T11:09:29.349Z,8.00
2022-12-18T11:12:00.343Z,8.73
2022-12-18T11:14:31.170Z,8.70
2022-12-18T11:19:56.620Z,7.75
2022-12-18T11:22:28.902Z,8.00
2022-12-18T11:27:55.571Z,8.45
2022-12-18T11:30:26.553Z,8.88
2022-12-18T11:33:01.830Z,9.60
2022-12-18T11:35:40.507Z,8.80
2022-12-18T11:38:19.593Z,7.38
2022-12-18T11:40:56.301Z,8.27
2022-12-18T11:43:30.098Z,9.32
2022-12-18T11:46:03.784Z,8.10
2022-12-18T11:48:36.463Z,7.93
2022-12-18T11:51:07.703Z,9.40
2022-12-18T11:53:39.162Z,8.05
2022-12-18T11:56:28.475Z,7.90
2022-12-18T11:59:07.396Z,8.77
2022-12-18T12:01:47.757Z,7.75
2022-12-18T12:04:46.999Z,8.90
2022-12-18T12:07:25.860Z,7.35
2022-12-18T12:10:06.231Z,8.68
2022-12-18T12:12:48.941Z,7.72
2022-12-18T12:15:28.134Z,9.45
2022-12-18T12:18:09.660Z,8.23
2022-12-18T12:20:51.622Z,8.57
2022-12-18T12:23:31.683Z,8.50
2022-12-18T12:26:05.086Z,7.25
2022-12-18T12:28:59.487Z,7.70
2022-12-18T12:31:41.001Z,8.10
2022-12-18T12:34:19.236Z,8.10
2022-12-18T12:37:08.998Z,8.45
2022-12-18T12:39:40.349Z,8.05
2022-12-18T12:42:35.208Z,7.95
2022-12-18T12:45:08.908Z,7.63
2022-12-18T12:47:43.849Z,7.43
2022-12-18T12:50:18.745Z,8.73
2022-12-18T12:52:50.282Z,8.57
2022-12-18T12:55:22.465Z,7.77
2022-12-18T12:58:00.171Z,8.23
2022-12-18T13:00:36.152Z,8.57
2022-12-18T13:03:17.750Z,8.25
2022-12-18T13:05:52.110Z,9.32
2022-12-18T13:08:26.714Z,9.10
2022-12-18T13:11:19.012Z,7.70
2022-12-18T13:13:51.855Z,8.40
2022-12-18T13:16:24.511Z,8.45
2022-12-18T13:18:55.361Z,9.15
2022-12-18T13:21:28.232Z,8.05
2022-12-18T13:26:35.266Z,7.93
2022-12-18T13:29:07.450Z,7.82
2022-12-18T13:32:03.164Z,8.13
2022-12-18T13:34:33.656Z,7.22
2022-12-18T13:37:35.741Z,8.32
2022-12-18T13:40:04.531Z,8.93
2022-12-18T13:43:00.418Z,8.80
2022-12-18T13:45:40.974Z,8.13
2022-12-18T13:48:18.380Z,8.68
2022-12-18T13:50:54.145Z,8.30
2022-12-18T13:53:25.764Z,8.80
2022-12-18T13:55:56.509Z,8.65
2022-12-18T13:58:24.809Z,8.73
2022-12-18T14:00:53.096Z,8.27
2022-12-18T14:03:24.882Z,7.10
2022-12-18T14:06:02.494Z,8.82
2022-12-18T14:08:36.142Z,9.68
2022-12-18T14:11:06.597Z,9.10
2022-12-18T14:13:39.697Z,8.93
2022-12-18T14:18:45.337Z,8.40
2022-12-18T14:21:23.740Z,10.73
2022-12-18T14:24:04.727Z,10.38
2022-12-18T14:26:34.523Z,8.85
2022-12-18T14:29:19.766Z,10.10
2022-12-18T14:32:08.433Z,10.00
2022-12-18T14:34:40.464Z,8.98
2022-12-18T14:37:12.171Z,9.93
2022-12-18T14:39:40.261Z,8.80
2022-12-18T14:42:12.326Z,9.00
2022-12-18T14:45:05.135Z,8.40
2022-12-18T14:47:28.422Z,8.95
2022-12-18T14:49:56.537Z,9.15
2022-12-18T14:52:34.017Z,10.80
2022-12-18T14:55:02.044Z,9.75
2022-12-18T14:57:38.905Z,9.60
2022-12-18T15:00:08.698Z,9.75
2022-12-18T15:02:38.471Z,8.85
2022-12-18T15:05:20.022Z,11.75
2022-12-18T15:07:51.245Z,10.90
2022-12-18T15:10:22.147Z,9.70
2022-12-18T15:12:52.062Z,8.75
2022-12-18T15:15:48.983Z,8.98
2022-12-18T15:18:20.620Z,10.48
2022-12-18T15:20:51.256Z,10.00
2022-12-18T15:23:26.457Z,10.73
2022-12-18T15:25:58.587Z,10.63
2022-12-18T15:28:29.825Z,11.63
2022-12-18T15:31:07.416Z,10.38
2022-12-18T15:33:38.649Z,11.25
2022-12-18T15:36:10.952Z,10.85
2022-12-18T15:38:40.924Z,10.30
2022-12-18T15:41:18.865Z,11.48
2022-12-18T15:43:50.276Z,11.32
2022-12-18T15:46:20.643Z,10.95
2022-12-18T15:48:50.351Z,11.48
2022-12-18T15:51:21.061Z,11.68
2022-12-18T15:53:52.483Z,10.32
2022-12-18T15:56:38.578Z,10.57
2022-12-18T15:59:10.971Z,11.48
2022-12-18T16:01:42.537Z,13.10
2022-12-18T16:04:13.848Z,12.32
2022-12-18T16:07:05.631Z,12.75
2022-12-18T16:09:31.810Z,12.57
2022-12-18T16:12:02.729Z,12.80
2022-12-18T16:14:32.572Z,13.40
2022-12-18T16:17:03.026Z,12.40
2022-12-18T16:19:31.217Z,13.85
2022-12-18T16:22:00.216Z,13.13
2022-12-18T16:24:30.218Z,13.15
2022-12-18T16:27:01.256Z,12.63
2022-12-18T16:29:31.090Z,13.07
2022-12-18T16:32:02.966Z,13.38
2022-12-18T16:34:35.625Z,14.07
2022-12-18T16:37:06.537Z,13.63
2022-12-18T16:39:35.424Z,13.55
2022-12-18T16:42:06.949Z,12.88
2022-12-18T16:44:35.089Z,13.80
2022-12-18T16:47:04.087Z,12.77
2022-12-18T16:49:32.310Z,14.20
2022-12-18T16:52:00.270Z,14.85
2022-12-18T16:54:31.147Z,14.45
2022-12-18T16:56:59.286Z,13.27
2022-12-18T16:59:29.309Z,13.88
2022-12-18T17:01:58.411Z,14.73
2022-12-18T17:04:26.692Z,15.65
2022-12-18T17:06:54.768Z,15.05
2022-12-18T17:09:25.198Z,13.70
2022-12-18T17:11:53.973Z,13.15
2022-12-18T17:14:24.250Z,14.43
2022-12-18T17:17:19.879Z,14.48
2022-12-18T17:19:42.610Z,13.68
2022-12-18T17:22:10.678Z,15.70
2022-12-18T17:24:38.655Z,15.90
2022-12-18T17:27:07.541Z,14.50
2022-12-18T17:29:35.886Z,15.20
2022-12-18T17:32:05.875Z,14.18
2022-12-18T17:34:33.873Z,15.30
2022-12-18T17:37:01.937Z,16.13
2022-12-18T17:39:30.798Z,15.45
2022-12-18T17:41:59.929Z,13.35
2022-12-18T17:44:27.970Z,15.38
2022-12-18T17:46:56.413Z,14.95
2022-12-18T17:49:25.971Z,15.95
2022-12-18T17:51:54.140Z,14.90
2022-12-18T17:54:22.141Z,15.23
2022-12-18T17:56:50.213Z,15.38
2022-12-18T17:59:18.314Z,14.95
2022-12-18T18:01:46.894Z,15.55
2022-12-18T18:04:15.388Z,14.75
2022-12-18T18:06:44.809Z,14.70
2022-12-18T18:09:16.110Z,14.60
2022-12-18T18:12:02.574Z,15.20
2022-12-18T18:14:30.893Z,15.40
2022-12-18T18:16:59.212Z,16.05
2022-12-18T18:19:29.848Z,16.15
2022-12-18T18:22:01.525Z,15.38
2022-12-18T18:24:31.206Z,15.50
2022-12-18T18:27:00.091Z,15.52
2022-12-18T18:29:31.261Z,16.48
2022-12-18T18:31:59.884Z,15.70
2022-12-18T18:34:29.701Z,16.25
2022-12-18T18:36:59.429Z,15.88
2022-12-18T18:39:28.247Z,15.88
2022-12-18T18:41:57.299Z,15.90
2022-12-18T18:44:26.341Z,16.42
2022-12-18T18:46:56.082Z,15.40
2022-12-18T18:49:27.126Z,14.57
2022-12-18T18:51:55.865Z,16.25
2022-12-18T18:54:25.487Z,15.63
2022-12-18T18:59:42.702Z,15.75
2022-12-18T19:02:13.247Z,15.90
2022-12-18T19:04:46.320Z,16.35
2022-12-18T19:07:19.743Z,14.27
2022-12-18T19:10:05.037Z,16.25
2022-12-18T19:12:51.556Z,15.38
2022-12-18T19:15:19.826Z,16.60
2022-12-18T19:17:47.955Z,16.33
2022-12-18T19:20:16.777Z,17.20
2022-12-18T19:22:47.949Z,17.10
2022-12-18T19:25:38.217Z,17.55
2022-12-18T19:28:13.507Z,17.58
2022-12-18T19:30:54.529Z,17.42
2022-12-18T19:33:43.037Z,18.55
2022-12-18T19:36:13.769Z,17.95
2022-12-18T19:38:42.733Z,18.00
2022-12-18T19:41:15.546Z,16.77
2022-12-18T19:43:44.012Z,18.00
2022-12-18T19:46:15.348Z,17.35
2022-12-18T19:48:44.616Z,17.67
2022-12-18T19:51:15.794Z,18.33
2022-12-18T19:53:44.105Z,16.08
2022-12-18T19:56:15.653Z,17.27
2022-12-18T19:58:44.806Z,17.43
2022-12-18T20:01:16.752Z,18.23
2022-12-18T20:03:46.616Z,18.20
2022-12-18T20:06:26.152Z,19.25
2022-12-18T20:09:00.316Z,18.88
2022-12-18T20:11:31.052Z,18.33
2022-12-18T20:13:59.495Z,18.30
2022-12-18T20:16:27.813Z,18.80
2022-12-18T20:18:56.046Z,17.58
2022-12-18T20:21:24.155Z,17.90
2022-12-18T20:23:52.409Z,17.98
2022-12-18T20:26:20.742Z,18.45
2022-12-18T20:28:50.226Z,17.90
2022-12-18T20:31:18.272Z,18.40
2022-12-18T20:33:48.755Z,18.55
2022-12-18T20:36:23.409Z,18.83
2022-12-18T20:38:54.688Z,17.65
2022-12-18T20:41:25.483Z,17.05
2022-12-18T20:43:55.183Z,18.23
2022-12-18T20:46:23.523Z,17.73
2022-12-18T20:48:51.644Z,18.02
2022-12-18T20:51:21.967Z,17.55
2022-12-18T20:53:50.108Z,19.20
2022-12-18T20:56:21.508Z,19.05
2022-12-18T20:58:53.635Z,17.80
2022-12-18T21:01:25.552Z,17.23
2022-12-18T21:03:54.079Z,17.98
2022-12-18T21:06:23.852Z,18.45
2022-12-18T21:08:52.063Z,18.65
2022-12-18T21:12:01.811Z,18.38
2022-12-18T21:14:30.976Z,18.60
2022-12-18T21:17:02.093Z,18.27
2022-12-18T21:19:31.289Z,20.13
2022-12-18T21:22:00.022Z,19.83
2022-12-18T21:24:28.203Z,18.38
2022-12-18T21:27:01.853Z,19.25
2022-12-18T21:29:30.146Z,18.08
2022-12-18T21:31:58.376Z,19.23
2022-12-18T21:34:29.691Z,18.48
2022-12-18T21:36:59.532Z,20.20
2022-12-18T21:39:29.001Z,19.35
2022-12-18T21:42:15.717Z,18.90
2022-12-18T21:44:45.185Z,20.17
2022-12-18T21:47:21.441Z,18.60
2022-12-18T21:49:52.805Z,20.77
2022-12-18T21:52:21.674Z,20.23
2022-12-18T21:55:08.032Z,22.33
2022-12-18T21:57:38.003Z,21.52
2022-12-18T22:00:07.478Z,21.23
2022-12-18T22:02:35.904Z,22.90
2022-12-18T22:05:06.228Z,21.83
2022-12-18T22:07:35.089Z,20.75
2022-12-18T22:10:03.243Z,21.08
2022-12-18T22:12:44.396Z,21.27
2022-12-18T22:15:21.127Z,21.13
2022-12-18T22:17:50.367Z,22.60
2022-12-18T22:20:20.568Z,21.58
2022-12-18T22:22:51.617Z,22.10
2022-12-18T22:25:19.701Z,22.27
2022-12-18T22:28:08.078Z,22.60
2022-12-18T22:30:35.131Z,21.80
2022-12-18T22:33:04.094Z,22.40
2022-12-18T22:35:33.512Z,21.95
2022-12-18T22:38:02.688Z,22.55
2022-12-18T22:40:31.004Z,22.42
2022-12-18T22:43:01.445Z,23.02
2022-12-18T22:45:29.522Z,23.10
2022-12-18T22:47:57.802Z,23.63
2022-12-18T22:50:26.002Z,22.92
2022-12-18T22:52:55.372Z,23.63
2022-12-18T22:55:23.639Z,21.75
2022-12-18T22:57:51.664Z,22.70
2022-12-18T23:00:23.990Z,23.92
2022-12-18T23:02:59.818Z,22.42
2022-12-18T23:05:30.317Z,22.60
2022-12-18T23:08:00.397Z,22.15
2022-12-18T23:10:29.202Z,21.45
2022-12-18T23:12:57.318Z,21.25
2022-12-18T23:15:28.113Z,22.02
2022-12-18T23:17:58.795Z,20.83
2022-12-18T23:20:28.304Z,22.67
2022-12-18T23:22:56.409Z,21.98
2022-12-18T23:25:26.020Z,21.50
2022-12-18T23:27:54.246Z,22.10
2022-12-18T23:30:22.297Z,21.50
2022-12-18T23:32:50.315Z,21.85
2022-12-18T23:35:18.978Z,21.90
2022-12-18T23:38:04.188Z,22.13
2022-12-18T23:40:33.730Z,22.17
2022-12-18T23:43:01.854Z,22.95
2022-12-18T23:45:30.029Z,21.90
2022-12-18T23:47:58.094Z,22.98
2022-12-18T23:50:30.003Z,20.83
2022-12-18T23:53:03.775Z,21.98
2022-12-18T23:55:40.562Z,22.65
2022-12-18T23:58:10.091Z,22.90
